| time (UTC) | temp F | wind direction | speed MPH | gust MPH | rain 1hr in | rain 24hr in | rain mn in | humidity % | barometer mb |
| 20260510174026 | 68 | 76 | 12.0 | 23.0 | 0.00 | 0.07 | 0.07 | 87 | 1016.9 |
| 20260510173524 | 67 | 82 | 17.0 | 20.0 | 0.01 | 0.07 | 0.07 | 86 | 1016.9 |
| 20260510173025 | 67 | 72 | 14.0 | 21.0 | 0.02 | 0.07 | 0.07 | 91 | 1016.8 |
| 20260510172524 | 66 | 84 | 16.0 | 21.0 | 0.03 | 0.07 | 0.07 | 90 | 1016.8 |
| 20260510172025 | 65 | 78 | 14.0 | 21.0 | 0.05 | 0.07 | 0.07 | 92 | 1016.9 |
| 20260510171524 | 65 | 83 | 16.0 | 21.0 | 0.06 | 0.07 | 0.07 | 94 | 1016.9 |
| 20260510171024 | 65 | 0 | 0.0 | 21.0 | 0.06 | 0.07 | 0.07 | 95 | 1016.9 |
| 20260510170524 | 64 | 70 | 16.0 | 23.0 | 0.07 | 0.07 | 0.07 | 96 | 1017.1 |
| 20260510170024 | 64 | 75 | 17.0 | 23.0 | 0.07 | 0.07 | 0.07 | 97 | 1017.1 |
| 20260510165524 | 64 | 76 | 15.0 | 22.0 | 0.07 | 0.07 | 0.07 | 99 | 1017.1 |
| 20260510165024 | 63 | 72 | 18.0 | 22.0 | 0.07 | 0.07 | 0.07 | 98 | 1017.0 |
| 20260510163524 | 62 | 48 | 18.0 | 26.0 | 0.06 | 0.06 | 0.06 | 98 | 1017.0 |
| 20260510162524 | 62 | 61 | 17.0 | 29.0 | 0.04 | 0.04 | 0.04 | 98 | 1016.8 |
| 20260510162024 | 62 | 43 | 14.0 | 29.0 | 0.02 | 0.02 | 0.02 | 97 | 1017.3 |
| 20260510161524 | 62 | 41 | 25.0 | 30.0 | 0.01 | 0.01 | 0.01 | 95 | 1017.2 |
| 20260510160524 | 63 | 36 | 12.0 | 29.0 | 0.00 | 0.00 | 0.00 | 92 | 1017.2 |
| 20260510160024 | 64 | 17 | 20.0 | 33.0 | 0.00 | 0.00 | 0.00 | 88 | 1017.0 |
| 20260510155525 | 64 | 14 | 21.0 | 33.0 | 0.00 | 0.00 | 0.00 | 84 | 1017.2 |
| 20260510155024 | 65 | 33 | 22.0 | 33.0 | 0.00 | 0.00 | 0.00 | 81 | 1016.9 |
| 20260510154024 | 67 | 18 | 23.0 | 36.0 | 0.00 | 0.00 | 0.00 | 75 | 1016.5 |
| 20260510153524 | 68 | 19 | 22.0 | 27.0 | 0.00 | 0.00 | 0.00 | 71 | 1016.4 |
| 20260510153025 | 75 | 357 | 11.0 | 11.0 | 0.00 | 0.00 | 0.00 | 61 | 1016.1 |
| 20260510152524 | 75 | 242 | 3.0 | 11.0 | 0.00 | 0.00 | 0.00 | 60 | 1014.9 |
| 20260510152024 | 75 | 136 | 7.0 | 15.0 | 0.00 | 0.00 | 0.00 | 62 | 1014.4 |
| 20260510151024 | 76 | 184 | 9.0 | 16.0 | 0.00 | 0.00 | 0.00 | 61 | 1013.6 |
| 20260510150524 | 75 | 0 | 0.0 | 16.0 | 0.00 | 0.00 | 0.00 | 62 | 1013.4 |
| 20260510150024 | 75 | 172 | 9.0 | 17.0 | 0.00 | 0.00 | 0.00 | 63 | 1013.4 |
| 20260510145025 | 75 | 165 | 9.0 | 15.0 | 0.00 | 0.00 | 0.00 | 63 | 1013.5 |
| 20260510144524 | 74 | 160 | 15.0 | 15.0 | 0.00 | 0.00 | 0.00 | 63 | 1013.4 |
| 20260510144024 | 74 | 162 | 15.0 | 15.0 | 0.00 | 0.00 | 0.00 | 64 | 1013.4 |
| 20260510143024 | 74 | 0 | 0.0 | 15.0 | 0.00 | 0.00 | 0.00 | 64 | 1013.6 |
| 20260510142525 | 73 | 0 | 0.0 | 15.0 | 0.00 | 0.00 | 0.00 | 66 | 1013.7 |
| 20260510142025 | 73 | 154 | 7.0 | 7.0 | 0.00 | 0.00 | 0.00 | 67 | 1013.8 |
| 20260510141524 | 72 | 0 | 0.0 | 12.0 | 0.00 | 0.00 | 0.00 | 68 | 1013.9 |
| 20260510141025 | 72 | 0 | 0.0 | 12.0 | 0.00 | 0.00 | 0.00 | 69 | 1013.9 |
| 20260510140526 | 72 | 0 | 0.0 | 0.0 | 0.00 | 0.00 | 0.00 | 69 | 1014.0 |
| 20260510135524 | 71 | 0 | 0.0 | 0.0 | 0.00 | 0.00 | 0.00 | 71 | 1013.9 |
| 20260510134525 | 71 | 0 | 0.0 | 12.0 | 0.00 | 0.00 | 0.00 | 74 | 1014.1 |
| 20260510134024 | 70 | 0 | 0.0 | 12.0 | 0.00 | 0.00 | 0.00 | 74 | 1014.2 |
| 20260510133025 | 69 | 0 | 0.0 | 14.0 | 0.00 | 0.00 | 0.00 | 75 | 1014.2 |
| 20260510132524 | 69 | 0 | 0.0 | 14.0 | 0.00 | 0.00 | 0.00 | 76 | 1014.3 |
| 20260510132024 | 69 | 145 | 9.0 | 14.0 | 0.00 | 0.00 | 0.00 | 77 | 1014.4 |
| 20260510131524 | 69 | 130 | 10.0 | 16.0 | 0.00 | 0.00 | 0.00 | 79 | 1014.4 |
| 20260510131024 | 68 | 121 | 12.0 | 16.0 | 0.00 | 0.00 | 0.00 | 79 | 1014.4 |
| 20260510130024 | 68 | 129 | 10.0 | 14.0 | 0.00 | 0.00 | 0.00 | 80 | 1014.7 |
| 20260510125525 | 68 | 130 | 9.0 | 14.0 | 0.00 | 0.00 | 0.00 | 81 | 1014.6 |
| 20260510125025 | 68 | 0 | 0.0 | 15.0 | 0.00 | 0.00 | 0.00 | 82 | 1014.4 |
| 20260510124524 | 67 | 115 | 10.0 | 15.0 | 0.00 | 0.00 | 0.00 | 82 | 1014.5 |
| 20260510124024 | 67 | 94 | 11.0 | 13.0 | 0.00 | 0.00 | 0.00 | 82 | 1014.5 |
| 20260510123524 | 67 | 109 | 12.0 | 13.0 | 0.00 | 0.00 | 0.00 | 82 | 1014.5 |
| 20260510123028 | 67 | 112 | 7.0 | 12.0 | 0.00 | 0.00 | 0.00 | 83 | 1014.4 |
| 20260510122524 | 66 | 101 | 8.0 | 12.0 | 0.00 | 0.00 | 0.00 | 84 | 1014.4 |
| 20260510122024 | 66 | 103 | 12.0 | 13.0 | 0.00 | 0.00 | 0.00 | 84 | 1014.4 |
| 20260510121524 | 66 | 107 | 10.0 | 14.0 | 0.00 | 0.00 | 0.00 | 84 | 1014.3 |
| 20260510121024 | 66 | 107 | 12.0 | 15.0 | 0.00 | 0.00 | 0.00 | 84 | 1014.1 |
| 20260510120525 | 66 | 118 | 13.0 | 15.0 | 0.00 | 0.00 | 0.00 | 84 | 1014.0 |
| 20260510120024 | 66 | 115 | 13.0 | 13.0 | 0.00 | 0.00 | 0.00 | 83 | 1014.0 |
| 20260510115524 | 66 | 0 | 0.0 | 13.0 | 0.00 | 0.00 | 0.00 | 83 | 1014.0 |
| 20260510115026 | 66 | 110 | 10.0 | 13.0 | 0.00 | 0.00 | 0.00 | 82 | 1014.0 |
| 20260510114524 | 66 | 111 | 9.0 | 17.0 | 0.00 | 0.00 | 0.00 | 82 | 1014.0 |
| 20260510114024 | 66 | 109 | 13.0 | 17.0 | 0.00 | 0.00 | 0.00 | 81 | 1013.9 |
| 20260510113524 | 66 | 113 | 15.0 | 17.0 | 0.00 | 0.00 | 0.00 | 82 | 1013.7 |
| 20260510113024 | 66 | 112 | 12.0 | 17.0 | 0.00 | 0.00 | 0.00 | 82 | 1013.6 |
| 20260510112525 | 66 | 118 | 13.0 | 17.0 | 0.00 | 0.00 | 0.00 | 81 | 1013.5 |
| 20260510112025 | 66 | 0 | 0.0 | 16.0 | 0.00 | 0.00 | 0.00 | 82 | 1013.4 |
| 20260510111525 | 66 | 100 | 14.0 | 18.0 | 0.00 | 0.00 | 0.00 | 83 | 1013.5 |
| 20260510111024 | 66 | 110 | 15.0 | 19.0 | 0.00 | 0.00 | 0.00 | 83 | 1013.4 |
| 20260510110024 | 66 | 108 | 13.0 | 17.0 | 0.00 | 0.00 | 0.00 | 84 | 1013.5 |
| 20260510105524 | 66 | 102 | 13.0 | 15.0 | 0.00 | 0.00 | 0.00 | 84 | 1013.5 |
| 20260510104525 | 66 | 97 | 12.0 | 15.0 | 0.00 | 0.00 | 0.00 | 84 | 1013.6 |
| 20260510104025 | 66 | 94 | 11.0 | 15.0 | 0.00 | 0.00 | 0.00 | 85 | 1013.6 |
| 20260510103524 | 66 | 88 | 10.0 | 13.0 | 0.00 | 0.00 | 0.00 | 85 | 1013.6 |
| 20260510103025 | 66 | 90 | 10.0 | 17.0 | 0.00 | 0.00 | 0.00 | 85 | 1013.6 |
| 20260510102525 | 66 | 92 | 9.0 | 17.0 | 0.00 | 0.00 | 0.00 | 84 | 1013.5 |
| 20260510101525 | 66 | 95 | 14.0 | 16.0 | 0.00 | 0.00 | 0.00 | 84 | 1013.2 |
| 20260510101024 | 66 | 94 | 12.0 | 18.0 | 0.00 | 0.00 | 0.00 | 84 | 1013.2 |
| 20260510100525 | 66 | 88 | 13.0 | 18.0 | 0.00 | 0.00 | 0.00 | 84 | 1013.1 |
| 20260510095524 | 66 | 0 | 0.0 | 23.0 | 0.00 | 0.00 | 0.00 | 85 | 1013.0 |
| 20260510094525 | 66 | 80 | 15.0 | 25.0 | 0.00 | 0.00 | 0.00 | 87 | 1013.2 |
| 20260510094025 | 66 | 87 | 15.0 | 25.0 | 0.00 | 0.00 | 0.00 | 87 | 1013.2 |
| 20260510093525 | 66 | 88 | 20.0 | 22.0 | 0.00 | 0.00 | 0.00 | 87 | 1013.2 |
| 20260510092025 | 67 | 75 | 14.0 | 28.0 | 0.00 | 0.00 | 0.00 | 86 | 1013.0 |
| 20260510091525 | 67 | 64 | 20.0 | 28.0 | 0.00 | 0.00 | 0.00 | 85 | 1012.9 |
| 20260510090524 | 68 | 74 | 18.0 | 28.0 | 0.00 | 0.00 | 0.00 | 81 | 1012.8 |
| 20260510090024 | 69 | 59 | 18.0 | 28.0 | 0.00 | 0.00 | 0.00 | 79 | 1012.7 |
| 20260510085024 | 69 | 59 | 12.0 | 18.0 | 0.00 | 0.00 | 0.00 | 75 | 1012.5 |
| 20260510084526 | 71 | 43 | 15.0 | 24.0 | 0.00 | 0.00 | 0.00 | 73 | 1012.5 |
| 20260510084027 | 71 | 62 | 17.0 | 24.0 | 0.00 | 0.00 | 0.00 | 72 | 1012.0 |
| 20260510083526 | 71 | 68 | 20.0 | 23.0 | 0.00 | 0.00 | 0.00 | 75 | 1012.0 |
| 20260510083027 | 71 | 72 | 18.0 | 24.0 | 0.00 | 0.00 | 0.00 | 75 | 1011.7 |
| 20260510082026 | 71 | 69 | 15.0 | 25.0 | 0.00 | 0.00 | 0.00 | 77 | 1012.3 |
| 20260510081527 | 71 | 65 | 21.0 | 27.0 | 0.00 | 0.00 | 0.00 | 78 | 1012.5 |
| 20260510080528 | 70 | 12 | 15.0 | 17.0 | 0.00 | 0.00 | 0.00 | 81 | 1013.1 |
| 20260510080026 | 70 | 4 | 12.0 | 18.0 | 0.00 | 0.00 | 0.00 | 80 | 1013.3 |
| 20260510075026 | 71 | 9 | 17.0 | 24.0 | 0.00 | 0.00 | 0.00 | 81 | 1013.4 |
| 20260510074527 | 71 | 27 | 16.0 | 30.0 | 0.00 | 0.00 | 0.00 | 82 | 1012.9 |
| 20260510074028 | 71 | 52 | 16.0 | 33.0 | 0.00 | 0.00 | 0.00 | 81 | 1012.6 |
| 20260510073028 | 72 | 10 | 17.0 | 21.0 | 0.00 | 0.00 | 0.00 | 85 | 1013.1 |
| 20260510072527 | 72 | 10 | 14.0 | 16.0 | 0.00 | 0.00 | 0.00 | 84 | 1012.6 |
| 20260510072029 | 72 | 25 | 10.0 | 10.0 | 0.00 | 0.00 | 0.00 | 82 | 1011.8 |
| 20260510071528 | 73 | 59 | 6.0 | 10.0 | 0.00 | 0.00 | 0.00 | 81 | 1011.3 |
| 20260510071027 | 73 | 76 | 7.0 | 10.0 | 0.00 | 0.00 | 0.00 | 80 | 1011.0 |
| 20260510070528 | 73 | 81 | 9.0 | 11.0 | 0.00 | 0.00 | 0.00 | 79 | 1010.9 |
| 20260510070027 | 73 | 88 | 10.0 | 13.0 | 0.00 | 0.00 | 0.00 | 79 | 1010.8 |
| 20260510065527 | 74 | 98 | 11.0 | 13.0 | 0.00 | 0.00 | 0.00 | 78 | 1010.6 |
| 20260510065026 | 74 | 87 | 9.0 | 13.0 | 0.00 | 0.00 | 0.00 | 77 | 1010.6 |
| 20260510064526 | 74 | 102 | 11.0 | 13.0 | 0.00 | 0.00 | 0.00 | 76 | 1010.6 |
| 20260510064026 | 74 | 82 | 11.0 | 14.0 | 0.00 | 0.00 | 0.00 | 75 | 1010.4 |
| 20260510063526 | 75 | 79 | 9.0 | 14.0 | 0.00 | 0.00 | 0.00 | 74 | 1010.4 |
| 20260510062526 | 75 | 83 | 11.0 | 17.0 | 0.00 | 0.00 | 0.00 | 72 | 1010.6 |
| 20260510062028 | 75 | 85 | 15.0 | 17.0 | 0.00 | 0.00 | 0.00 | 71 | 1010.5 |
| 20260510061528 | 75 | 85 | 17.0 | 17.0 | 0.00 | 0.00 | 0.00 | 71 | 1010.4 |
| 20260510061027 | 76 | 0 | 0.0 | 25.0 | 0.00 | 0.00 | 0.00 | 70 | 1010.5 |
| 20260510060527 | 76 | 0 | 0.0 | 25.0 | 0.00 | 0.00 | 0.00 | 68 | 1010.5 |
| 20260510060027 | 76 | 85 | 20.0 | 22.0 | 0.00 | 0.00 | 0.00 | 68 | 1010.6 |
| 20260510055527 | 77 | 85 | 15.0 | 26.0 | 0.00 | 0.00 | 0.00 | 67 | 1010.8 |
| 20260510055026 | 77 | 87 | 14.0 | 30.0 | 0.00 | 0.00 | 0.00 | 67 | 1011.1 |
| 20260510054527 | 77 | 81 | 16.0 | 32.0 | 0.00 | 0.00 | 0.00 | 67 | 1011.8 |
| 20260510053527 | 76 | 37 | 19.0 | 24.0 | 0.00 | 0.00 | 0.00 | 69 | 1012.7 |
| 20260510052527 | 74 | 25 | 20.0 | 26.0 | 0.00 | 0.00 | 0.00 | 74 | 1012.3 |
| 20260510052027 | 72 | 20 | 14.0 | 28.0 | 0.00 | 0.00 | 0.00 | 81 | 1012.2 |
| 20260510051528 | 71 | 3 | 24.0 | 28.0 | 0.00 | 0.00 | 0.00 | 82 | 1011.7 |
| 20260510051026 | 73 | 357 | 13.0 | 14.0 | 0.00 | 0.00 | 0.00 | 78 | 1010.8 |
| 20260510050529 | 73 | 85 | 6.0 | 10.0 | 0.00 | 0.00 | 0.00 | 77 | 1009.7 |
| 20260510050027 | 73 | 124 | 9.0 | 10.0 | 0.00 | 0.00 | 0.00 | 77 | 1009.2 |
| 20260510045527 | 73 | 120 | 8.0 | 10.0 | 0.00 | 0.00 | 0.00 | 76 | 1009.2 |
| 20260510045027 | 73 | 118 | 10.0 | 10.0 | 0.00 | 0.00 | 0.00 | 76 | 1009.1 |
| 20260510044527 | 73 | 124 | 7.0 | 10.0 | 0.00 | 0.00 | 0.00 | 75 | 1009.1 |
| 20260510044027 | 73 | 110 | 9.0 | 10.0 | 0.00 | 0.00 | 0.00 | 76 | 1009.1 |
| 20260510043528 | 73 | 109 | 9.0 | 11.0 | 0.00 | 0.00 | 0.00 | 76 | 1009.0 |
| 20260510042525 | 73 | 103 | 10.0 | 11.0 | 0.00 | 0.00 | 0.00 | 77 | 1008.8 |
| 20260510042026 | 73 | 120 | 10.0 | 11.0 | 0.00 | 0.00 | 0.00 | 77 | 1008.6 |
| 20260510041526 | 73 | 114 | 11.0 | 11.0 | 0.00 | 0.00 | 0.00 | 77 | 1008.6 |
| 20260510040528 | 73 | 119 | 10.0 | 12.0 | 0.00 | 0.00 | 0.00 | 77 | 1008.7 |
| 20260510035527 | 73 | 118 | 10.0 | 13.0 | 0.00 | 0.00 | 0.00 | 76 | 1008.8 |
| 20260510035027 | 73 | 123 | 10.0 | 13.0 | 0.00 | 0.00 | 0.00 | 75 | 1008.8 |
| 20260510034525 | 73 | 121 | 10.0 | 10.0 | 0.00 | 0.00 | 0.00 | 75 | 1008.9 |
| 20260510034025 | 73 | 130 | 8.0 | 11.0 | 0.00 | 0.00 | 0.00 | 75 | 1009.0 |
| 20260510033526 | 74 | 121 | 9.0 | 11.0 | 0.00 | 0.00 | 0.00 | 74 | 1009.0 |
| 20260510033028 | 74 | 124 | 10.0 | 12.0 | 0.00 | 0.00 | 0.00 | 73 | 1009.1 |
| 20260510032526 | 74 | 113 | 9.0 | 13.0 | 0.00 | 0.00 | 0.00 | 73 | 1009.1 |
| 20260510032028 | 74 | 116 | 11.0 | 14.0 | 0.00 | 0.00 | 0.00 | 73 | 1009.1 |
| 20260510031025 | 74 | 109 | 10.0 | 16.0 | 0.00 | 0.00 | 0.00 | 72 | 1008.9 |
| 20260510030525 | 74 | 114 | 11.0 | 14.0 | 0.00 | 0.00 | 0.00 | 73 | 1009.0 |
| 20260510030025 | 74 | 109 | 11.0 | 14.0 | 0.00 | 0.00 | 0.00 | 73 | 1009.0 |
| 20260510025525 | 75 | 107 | 10.0 | 13.0 | 0.00 | 0.00 | 0.00 | 72 | 1009.1 |
| 20260510025027 | 75 | 109 | 10.0 | 12.0 | 0.00 | 0.00 | 0.00 | 71 | 1009.1 |
| 20260510024526 | 75 | 111 | 10.0 | 11.0 | 0.00 | 0.00 | 0.00 | 71 | 1009.2 |
| 20260510024025 | 75 | 102 | 11.0 | 13.0 | 0.00 | 0.00 | 0.00 | 71 | 1009.2 |
| 20260510022525 | 75 | 97 | 8.0 | 12.0 | 0.00 | 0.00 | 0.00 | 74 | 1009.1 |
| 20260510022025 | 75 | 100 | 10.0 | 12.0 | 0.00 | 0.00 | 0.00 | 75 | 1009.0 |
| 20260510021025 | 76 | 101 | 10.0 | 11.0 | 0.00 | 0.00 | 0.00 | 75 | 1009.0 |
| 20260510020525 | 76 | 100 | 11.0 | 11.0 | 0.00 | 0.00 | 0.00 | 74 | 1008.9 |
| 20260510020025 | 76 | 100 | 10.0 | 11.0 | 0.00 | 0.00 | 0.00 | 74 | 1008.9 |
| 20260510015525 | 77 | 92 | 9.0 | 11.0 | 0.00 | 0.00 | 0.00 | 73 | 1008.9 |
| 20260510015025 | 77 | 92 | 10.0 | 11.0 | 0.00 | 0.00 | 0.00 | 73 | 1008.8 |
| 20260510014525 | 77 | 93 | 10.0 | 11.0 | 0.00 | 0.00 | 0.00 | 72 | 1008.8 |
| 20260510014025 | 78 | 91 | 9.0 | 11.0 | 0.00 | 0.00 | 0.00 | 72 | 1008.9 |
| 20260510013525 | 78 | 97 | 10.0 | 11.0 | 0.00 | 0.00 | 0.00 | 71 | 1008.8 |
| 20260510013026 | 78 | 109 | 10.0 | 10.0 | 0.00 | 0.00 | 0.00 | 71 | 1008.7 |
| 20260510012525 | 78 | 93 | 8.0 | 10.0 | 0.00 | 0.00 | 0.00 | 71 | 1008.7 |
| 20260510012025 | 79 | 90 | 8.0 | 10.0 | 0.00 | 0.00 | 0.00 | 71 | 1008.6 |
| 20260510011526 | 79 | 101 | 7.0 | 11.0 | 0.00 | 0.00 | 0.00 | 70 | 1008.5 |
| 20260510011027 | 80 | 112 | 9.0 | 11.0 | 0.00 | 0.00 | 0.00 | 69 | 1008.4 |
| 20260510010527 | 80 | 98 | 8.0 | 9.0 | 0.00 | 0.00 | 0.00 | 68 | 1008.3 |
| 20260510010027 | 80 | 104 | 8.0 | 9.0 | 0.00 | 0.00 | 0.00 | 68 | 1008.3 |
| 20260510005527 | 80 | 98 | 6.0 | 9.0 | 0.00 | 0.00 | 0.00 | 67 | 1008.2 |
| 20260510005027 | 81 | 99 | 9.0 | 13.0 | 0.00 | 0.00 | 0.00 | 66 | 1008.2 |
| 20260510004527 | 82 | 109 | 8.0 | 13.0 | 0.00 | 0.00 | 0.00 | 65 | 1008.1 |
| 20260510004027 | 82 | 114 | 13.0 | 13.0 | 0.00 | 0.00 | 0.00 | 63 | 1008.0 |
| 20260510003528 | 83 | 97 | 9.0 | 9.0 | 0.00 | 0.00 | 0.00 | 58 | 1008.1 |
| 20260510003027 | 83 | 111 | 5.0 | 7.0 | 0.00 | 0.00 | 0.00 | 54 | 1008.1 |
| 20260510002525 | 83 | 97 | 6.0 | 9.0 | 0.00 | 0.00 | 0.00 | 52 | 1008.0 |
| 20260510002028 | 84 | 97 | 7.0 | 11.0 | 0.00 | 0.00 | 0.00 | 51 | 1008.0 |
| 20260510001527 | 84 | 102 | 7.0 | 11.0 | 0.00 | 0.00 | 0.00 | 50 | 1008.0 |
| 20260510001028 | 84 | 94 | 6.0 | 9.0 | 0.00 | 0.00 | 0.00 | 50 | 1008.1 |
| 20260510000527 | 84 | 94 | 8.0 | 9.0 | 0.00 | 0.00 | 0.00 | 49 | 1008.1 |
| 20260510000028 | 84 | 85 | 7.0 | 11.0 | 0.00 | 0.00 | 0.00 | 49 | 1008.1 |
| 20260509235527 | 84 | 100 | 8.0 | 11.0 | 0.00 | 0.00 | 0.00 | 48 | 1008.1 |
| 20260509235025 | 85 | 89 | 6.0 | 11.0 | 0.00 | 0.00 | 0.00 | 48 | 1008.1 |
| 20260509234025 | 85 | 102 | 7.0 | 9.0 | 0.00 | 0.00 | 0.00 | 46 | 1008.2 |
| 20260509233525 | 85 | 92 | 7.0 | 10.0 | 0.00 | 0.00 | 0.00 | 47 | 1008.3 |
| 20260509233025 | 85 | 92 | 8.0 | 12.0 | 0.00 | 0.00 | 0.00 | 47 | 1008.3 |
| 20260509232525 | 85 | 77 | 9.0 | 12.0 | 0.00 | 0.00 | 0.00 | 46 | 1008.3 |
| 20260509231525 | 85 | 88 | 8.0 | 10.0 | 0.00 | 0.00 | 0.00 | 44 | 1008.4 |
| 20260509231025 | 86 | 104 | 7.0 | 9.0 | 0.00 | 0.00 | 0.00 | 46 | 1008.4 |
| 20260509230525 | 86 | 148 | 7.0 | 9.0 | 0.00 | 0.00 | 0.00 | 43 | 1008.4 |
| 20260509230025 | 86 | 92 | 5.0 | 10.0 | 0.00 | 0.00 | 0.00 | 46 | 1008.5 |
| 20260509225525 | 86 | 106 | 9.0 | 10.0 | 0.00 | 0.00 | 0.00 | 46 | 1008.5 |
| 20260509225025 | 85 | 88 | 8.0 | 10.0 | 0.00 | 0.00 | 0.00 | 46 | 1008.5 |
| 20260509224525 | 86 | 86 | 9.0 | 9.0 | 0.00 | 0.00 | 0.00 | 45 | 1008.5 |
| 20260509224026 | 85 | 131 | 6.0 | 9.0 | 0.00 | 0.00 | 0.00 | 45 | 1008.4 |
| 20260509223525 | 85 | 95 | 9.0 | 9.0 | 0.00 | 0.00 | 0.00 | 45 | 1008.5 |
| 20260509223027 | 85 | 100 | 6.0 | 10.0 | 0.00 | 0.00 | 0.00 | 47 | 1008.5 |
| 20260509222529 | 85 | 121 | 5.0 | 12.0 | 0.00 | 0.00 | 0.00 | 45 | 1008.4 |
| 20260509222025 | 85 | 87 | 9.0 | 14.0 | 0.00 | 0.00 | 0.00 | 46 | 1008.4 |
| 20260509221525 | 85 | 89 | 12.0 | 15.0 | 0.00 | 0.00 | 0.00 | 47 | 1008.4 |
| 20260509221025 | 85 | 93 | 5.0 | 15.0 | 0.00 | 0.00 | 0.00 | 47 | 1008.5 |
| 20260509220025 | 85 | 77 | 10.0 | 12.0 | 0.00 | 0.00 | 0.00 | 47 | 1008.5 |
| 20260509215525 | 85 | 70 | 9.0 | 14.0 | 0.00 | 0.00 | 0.00 | 48 | 1008.4 |
| 20260509214025 | 85 | 76 | 9.0 | 14.0 | 0.00 | 0.00 | 0.00 | 48 | 1008.4 |
| 20260509213525 | 85 | 91 | 10.0 | 14.0 | 0.00 | 0.00 | 0.00 | 50 | 1008.5 |
| 20260509212525 | 85 | 84 | 9.0 | 13.0 | 0.00 | 0.00 | 0.00 | 50 | 1008.6 |
| 20260509212026 | 85 | 111 | 10.0 | 13.0 | 0.00 | 0.00 | 0.00 | 51 | 1008.7 |
| 20260509211525 | 85 | 83 | 7.0 | 11.0 | 0.00 | 0.00 | 0.00 | 49 | 1008.8 |
| 20260509211025 | 85 | 89 | 3.0 | 14.0 | 0.00 | 0.00 | 0.00 | 48 | 1008.8 |
| 20260509210525 | 85 | 117 | 8.0 | 14.0 | 0.00 | 0.00 | 0.00 | 48 | 1008.9 |
| 20260509210025 | 86 | 86 | 12.0 | 12.0 | 0.00 | 0.00 | 0.00 | 50 | 1008.9 |
| 20260509205525 | 85 | 137 | 3.0 | 11.0 | 0.00 | 0.00 | 0.00 | 49 | 1009.0 |
| 20260509205025 | 85 | 82 | 8.0 | 13.0 | 0.00 | 0.00 | 0.00 | 48 | 1009.0 |
| 20260509204525 | 85 | 78 | 9.0 | 16.0 | 0.00 | 0.00 | 0.00 | 50 | 1009.1 |
| 20260509203525 | 86 | 99 | 8.0 | 11.0 | 0.00 | 0.00 | 0.00 | 48 | 1009.2 |
| 20260509203025 | 85 | 66 | 5.0 | 17.0 | 0.00 | 0.00 | 0.00 | 47 | 1009.2 |
| 20260509202527 | 85 | 57 | 13.0 | 17.0 | 0.00 | 0.00 | 0.00 | 48 | 1009.2 |
| 20260509202025 | 86 | 83 | 10.0 | 11.0 | 0.00 | 0.00 | 0.00 | 47 | 1009.2 |
| 20260509201525 | 85 | 103 | 8.0 | 10.0 | 0.00 | 0.00 | 0.00 | 42 | 1009.3 |
| 20260509201025 | 85 | 298 | 4.0 | 13.0 | 0.00 | 0.00 | 0.00 | 41 | 1009.3 |
| 20260509200525 | 86 | 60 | 9.0 | 13.0 | 0.00 | 0.00 | 0.00 | 44 | 1009.4 |
| 20260509200025 | 85 | 47 | 6.0 | 17.0 | 0.00 | 0.00 | 0.00 | 44 | 1009.4 |
| 20260509195525 | 85 | 58 | 12.0 | 17.0 | 0.00 | 0.00 | 0.00 | 42 | 1009.6 |
| 20260509195025 | 85 | 22 | 10.0 | 11.0 | 0.00 | 0.00 | 0.00 | 44 | 1009.6 |
| 20260509194525 | 85 | 6 | 3.0 | 12.0 | 0.00 | 0.00 | 0.00 | 45 | 1009.7 |
| 20260509194025 | 85 | 107 | 9.0 | 15.0 | 0.00 | 0.00 | 0.00 | 45 | 1009.8 |
| 20260509193025 | 84 | 58 | 5.0 | 14.0 | 0.00 | 0.00 | 0.00 | 49 | 1009.9 |
| 20260509192525 | 85 | 39 | 4.0 | 10.0 | 0.00 | 0.00 | 0.00 | 46 | 1010.0 |
| 20260509192025 | 85 | 265 | 4.0 | 7.0 | 0.00 | 0.00 | 0.00 | 45 | 1010.0 |
| 20260509191525 | 84 | 343 | 4.0 | 15.0 | 0.00 | 0.00 | 0.00 | 46 | 1010.1 |
| 20260509191025 | 84 | 63 | 7.0 | 15.0 | 0.00 | 0.00 | 0.00 | 47 | 1010.2 |
| 20260509190025 | 84 | 47 | 9.0 | 15.0 | 0.00 | 0.00 | 0.00 | 47 | 1010.2 |
| 20260509185525 | 84 | 43 | 14.0 | 15.0 | 0.00 | 0.00 | 0.00 | 51 | 1010.1 |
| 20260509185025 | 84 | 62 | 7.0 | 12.0 | 0.00 | 0.00 | 0.00 | 50 | 1010.2 |
| 20260509184525 | 84 | 78 | 3.0 | 7.0 | 0.00 | 0.00 | 0.00 | 55 | 1010.2 |
| 20260509184025 | 83 | 89 | 5.0 | 12.0 | 0.00 | 0.00 | 0.00 | 54 | 1010.3 |
| 20260509183026 | 83 | 15 | 10.0 | 14.0 | 0.00 | 0.00 | 0.00 | 53 | 1010.4 |
| 20260509182525 | 82 | 23 | 11.0 | 14.0 | 0.00 | 0.00 | 0.00 | 53 | 1010.4 |
| 20260509182025 | 82 | 46 | 7.0 | 14.0 | 0.00 | 0.00 | 0.00 | 58 | 1010.4 |
| 20260509181527 | 82 | 69 | 9.0 | 9.0 | 0.00 | 0.00 | 0.00 | 59 | 1010.5 |
| 20260509181025 | 82 | 58 | 9.0 | 10.0 | 0.00 | 0.00 | 0.00 | 59 | 1010.5 |
| 20260509180527 | 82 | 76 | 7.0 | 13.0 | 0.00 | 0.00 | 0.00 | 60 | 1010.6 |
| 20260509180025 | 81 | 50 | 6.0 | 13.0 | 0.00 | 0.00 | 0.00 | 58 | 1010.6 |
| 20260509175525 | 81 | 89 | 2.0 | 10.0 | 0.00 | 0.00 | 0.00 | 62 | 1010.7 |
| 20260509175025 | 81 | 36 | 9.0 | 10.0 | 0.00 | 0.00 | 0.00 | 60 | 1010.8 |
| 20260509174526 | 81 | 48 | 7.0 | 10.0 | 0.00 | 0.00 | 0.00 | 60 | 1010.9 |